Avoca, Iowa
Current Conditions -  °F | °C
As of 2:35 AM on Sunday 21 Dec 2014 (Local Time) from KHNR Reporting Station
Haze Haze  
Wind Chill: -1°   Ceiling: 700
Heat Index:   Visibility: 5mi
Dew Point:   Wind: 13mph
Humidity: 100%   Direction: 180°S
Pressure: 30.01"   Gusts: NA
Location:  41.48°N, 95.34°W
Report Text: KHNR 210835Z AUTO 18011KT 5SM BR OVC007 03/03 A3001 RMK AO2
Loading
Personal Weather Stations






























Interactive Weather Map New forecast layout! Learn more

10-Day Weather Forecast

Advertisements
Track Severe Weather on mobile